sensor_id;sensor_type;location;lat;lon;timestamp;P1;durP1;ratioP1;P2;durP2;ratioP2
4313;SDS011;2170;48.794;9.182;2023-04-24T00:00:22;1.43;;;1.33;;
4313;SDS011;2170;48.794;9.182;2023-04-24T00:02:52;1.90;;;1.50;;
4313;SDS011;2170;48.794;9.182;2023-04-24T00:05:22;1.20;;;1.20;;
4313;SDS011;2170;48.794;9.182;2023-04-24T00:07:57;1.00;;;1.00;;
4313;SDS011;2170;48.794;9.182;2023-04-24T00:10:30;2.97;;;1.10;;
4313;SDS011;2170;48.794;9.182;2023-04-24T00:18:37;1.20;;;1.10;;
4313;SDS011;2170;48.794;9.182;2023-04-24T00:21:14;1.33;;;1.10;;
4313;SDS011;2170;48.794;9.182;2023-04-24T00:23:55;1.40;;;1.30;;
4313;SDS011;2170;48.794;9.182;2023-04-24T00:26:23;2.50;;;1.17;;
4313;SDS011;2170;48.794;9.182;2023-04-24T00:29:01;2.90;;;1.10;;
4313;SDS011;2170;48.794;9.182;2023-04-24T00:31:35;1.53;;;1.30;;
4313;SDS011;2170;48.794;9.182;2023-04-24T00:34:08;1.47;;;1.23;;
4313;SDS011;2170;48.794;9.182;2023-04-24T00:36:39;1.87;;;1.00;;
4313;SDS011;2170;48.794;9.182;2023-04-24T00:39:09;1.13;;;1.13;;
4313;SDS011;2170;48.794;9.182;2023-04-24T00:41:38;2.23;;;0.97;;
4313;SDS011;2170;48.794;9.182;2023-04-24T00:44:06;0.97;;;0.97;;
4313;SDS011;2170;48.794;9.182;2023-04-24T00:46:38;1.27;;;1.27;;
4313;SDS011;2170;48.794;9.182;2023-04-24T00:49:08;1.93;;;1.10;;
4313;SDS011;2170;48.794;9.182;2023-04-24T00:51:36;0.80;;;0.80;;
4313;SDS011;2170;48.794;9.182;2023-04-24T00:54:08;1.30;;;1.20;;
4313;SDS011;2170;48.794;9.182;2023-04-24T00:56:42;1.27;;;1.13;;
4313;SDS011;2170;48.794;9.182;2023-04-24T00:59:09;1.77;;;1.10;;
4313;SDS011;2170;48.794;9.182;2023-04-24T01:01:38;1.00;;;0.90;;
4313;SDS011;2170;48.794;9.182;2023-04-24T01:04:14;1.20;;;1.20;;
4313;SDS011;2170;48.794;9.182;2023-04-24T01:06:48;1.20;;;1.10;;
4313;SDS011;2170;48.794;9.182;2023-04-24T01:09:17;1.27;;;1.20;;
4313;SDS011;2170;48.794;9.182;2023-04-24T01:11:55;3.30;;;1.30;;
4313;SDS011;2170;48.794;9.182;2023-04-24T01:14:26;1.33;;;1.00;;
4313;SDS011;2170;48.794;9.182;2023-04-24T01:17:06;1.80;;;1.20;;
4313;SDS011;2170;48.794;9.182;2023-04-24T01:19:42;1.50;;;1.00;;
4313;SDS011;2170;48.794;9.182;2023-04-24T01:22:23;1.03;;;1.03;;
4313;SDS011;2170;48.794;9.182;2023-04-24T01:24:53;1.00;;;1.00;;
4313;SDS011;2170;48.794;9.182;2023-04-24T01:27:26;1.37;;;1.27;;
4313;SDS011;2170;48.794;9.182;2023-04-24T01:30:01;1.80;;;1.43;;
4313;SDS011;2170;48.794;9.182;2023-04-24T01:32:33;1.00;;;1.00;;
4313;SDS011;2170;48.794;9.182;2023-04-24T01:35:04;1.33;;;1.10;;
4313;SDS011;2170;48.794;9.182;2023-04-24T01:37:35;1.97;;;1.20;;
4313;SDS011;2170;48.794;9.182;2023-04-24T01:40:04;1.10;;;1.10;;
4313;SDS011;2170;48.794;9.182;2023-04-24T01:42:35;1.00;;;1.00;;
4313;SDS011;2170;48.794;9.182;2023-04-24T01:45:14;1.07;;;1.07;;
4313;SDS011;2170;48.794;9.182;2023-04-24T01:47:45;1.23;;;1.20;;
4313;SDS011;2170;48.794;9.182;2023-04-24T01:50:19;1.50;;;1.40;;
4313;SDS011;2170;48.794;9.182;2023-04-24T01:52:50;1.40;;;1.20;;
4313;SDS011;2170;48.794;9.182;2023-04-24T01:55:21;1.63;;;1.30;;
4313;SDS011;2170;48.794;9.182;2023-04-24T01:57:51;3.03;;;1.60;;
4313;SDS011;2170;48.794;9.182;2023-04-24T02:00:20;1.53;;;1.27;;
4313;SDS011;2170;48.794;9.182;2023-04-24T02:02:51;1.47;;;1.37;;
4313;SDS011;2170;48.794;9.182;2023-04-24T02:05:22;1.40;;;1.30;;
4313;SDS011;2170;48.794;9.182;2023-04-24T02:07:57;0.93;;;0.93;;
4313;SDS011;2170;48.794;9.182;2023-04-24T02:10:26;1.33;;;1.23;;
4313;SDS011;2170;48.794;9.182;2023-04-24T02:12:57;2.20;;;1.57;;
4313;SDS011;2170;48.794;9.182;2023-04-24T02:15:29;1.20;;;1.10;;
4313;SDS011;2170;48.794;9.182;2023-04-24T02:17:57;1.20;;;1.10;;
4313;SDS011;2170;48.794;9.182;2023-04-24T02:20:33;1.00;;;1.00;;
4313;SDS011;2170;48.794;9.182;2023-04-24T02:23:05;1.27;;;1.13;;
4313;SDS011;2170;48.794;9.182;2023-04-24T02:25:46;2.30;;;1.43;;
4313;SDS011;2170;48.794;9.182;2023-04-24T02:28:14;1.80;;;1.10;;
4313;SDS011;2170;48.794;9.182;2023-04-24T02:30:48;2.10;;;1.57;;
4313;SDS011;2170;48.794;9.182;2023-04-24T02:33:18;1.47;;;1.10;;
4313;SDS011;2170;48.794;9.182;2023-04-24T02:35:50;1.57;;;1.30;;
4313;SDS011;2170;48.794;9.182;2023-04-24T02:38:20;1.07;;;1.03;;
4313;SDS011;2170;48.794;9.182;2023-04-24T02:40:53;2.60;;;1.37;;
4313;SDS011;2170;48.794;9.182;2023-04-24T02:43:27;2.07;;;1.20;;
4313;SDS011;2170;48.794;9.182;2023-04-24T02:46:05;1.00;;;1.00;;
4313;SDS011;2170;48.794;9.182;2023-04-24T02:48:34;2.43;;;1.27;;
4313;SDS011;2170;48.794;9.182;2023-04-24T02:51:08;1.03;;;1.03;;
4313;SDS011;2170;48.794;9.182;2023-04-24T02:53:40;1.13;;;1.03;;
4313;SDS011;2170;48.794;9.182;2023-04-24T02:56:08;1.37;;;1.20;;
4313;SDS011;2170;48.794;9.182;2023-04-24T02:58:45;1.40;;;1.30;;
4313;SDS011;2170;48.794;9.182;2023-04-24T03:01:26;2.33;;;1.00;;
4313;SDS011;2170;48.794;9.182;2023-04-24T03:03:57;1.40;;;1.30;;
4313;SDS011;2170;48.794;9.182;2023-04-24T03:06:25;1.70;;;1.60;;
4313;SDS011;2170;48.794;9.182;2023-04-24T03:08:54;1.27;;;1.20;;
4313;SDS011;2170;48.794;9.182;2023-04-24T03:11:28;1.40;;;1.30;;
4313;SDS011;2170;48.794;9.182;2023-04-24T03:14:02;1.30;;;1.20;;
4313;SDS011;2170;48.794;9.182;2023-04-24T03:16:33;1.50;;;1.40;;
4313;SDS011;2170;48.794;9.182;2023-04-24T03:19:04;1.30;;;1.20;;
4313;SDS011;2170;48.794;9.182;2023-04-24T03:22:37;1.20;;;1.20;;
4313;SDS011;2170;48.794;9.182;2023-04-24T03:24:32;1.10;;;1.10;;
4313;SDS011;2170;48.794;9.182;2023-04-24T03:27:11;1.33;;;1.00;;
4313;SDS011;2170;48.794;9.182;2023-04-24T03:29:42;1.67;;;1.57;;
4313;SDS011;2170;48.794;9.182;2023-04-24T03:32:13;1.33;;;1.20;;
4313;SDS011;2170;48.794;9.182;2023-04-24T03:34:41;1.53;;;1.17;;
4313;SDS011;2170;48.794;9.182;2023-04-24T03:37:09;1.13;;;1.13;;
4313;SDS011;2170;48.794;9.182;2023-04-24T03:39:40;2.07;;;1.63;;
4313;SDS011;2170;48.794;9.182;2023-04-24T03:42:10;1.40;;;1.30;;
4313;SDS011;2170;48.794;9.182;2023-04-24T03:44:39;1.50;;;1.40;;
4313;SDS011;2170;48.794;9.182;2023-04-24T03:47:13;3.83;;;1.43;;
4313;SDS011;2170;48.794;9.182;2023-04-24T03:49:41;1.00;;;1.00;;
4313;SDS011;2170;48.794;9.182;2023-04-24T03:52:09;1.60;;;1.50;;
4313;SDS011;2170;48.794;9.182;2023-04-24T03:54:36;1.57;;;1.47;;
4313;SDS011;2170;48.794;9.182;2023-04-24T03:57:06;1.33;;;1.27;;
4313;SDS011;2170;48.794;9.182;2023-04-24T03:59:44;1.20;;;1.17;;
4313;SDS011;2170;48.794;9.182;2023-04-24T04:02:14;1.50;;;1.40;;
4313;SDS011;2170;48.794;9.182;2023-04-24T04:05:02;2.37;;;1.40;;
4313;SDS011;2170;48.794;9.182;2023-04-24T04:07:32;1.30;;;1.20;;
4313;SDS011;2170;48.794;9.182;2023-04-24T04:10:00;2.20;;;1.27;;
4313;SDS011;2170;48.794;9.182;2023-04-24T04:12:31;1.63;;;1.50;;
4313;SDS011;2170;48.794;9.182;2023-04-24T04:14:59;1.27;;;1.17;;
4313;SDS011;2170;48.794;9.182;2023-04-24T04:17:33;2.00;;;1.80;;
4313;SDS011;2170;48.794;9.182;2023-04-24T04:20:24;1.57;;;1.33;;
4313;SDS011;2170;48.794;9.182;2023-04-24T04:22:58;1.20;;;1.20;;
4313;SDS011;2170;48.794;9.182;2023-04-24T04:25:32;2.00;;;1.30;;
4313;SDS011;2170;48.794;9.182;2023-04-24T04:28:09;1.47;;;1.20;;
4313;SDS011;2170;48.794;9.182;2023-04-24T04:30:43;1.30;;;1.20;;
4313;SDS011;2170;48.794;9.182;2023-04-24T04:33:27;1.20;;;1.20;;
4313;SDS011;2170;48.794;9.182;2023-04-24T04:36:03;1.20;;;1.20;;
4313;SDS011;2170;48.794;9.182;2023-04-24T04:38:38;1.30;;;1.30;;
4313;SDS011;2170;48.794;9.182;2023-04-24T04:41:12;1.60;;;1.50;;
4313;SDS011;2170;48.794;9.182;2023-04-24T04:43:49;3.83;;;1.33;;
4313;SDS011;2170;48.794;9.182;2023-04-24T04:46:26;1.97;;;1.47;;
4313;SDS011;2170;48.794;9.182;2023-04-24T04:49:00;1.63;;;1.53;;
4313;SDS011;2170;48.794;9.182;2023-04-24T04:51:33;1.40;;;1.40;;
4313;SDS011;2170;48.794;9.182;2023-04-24T04:54:04;1.87;;;1.43;;
4313;SDS011;2170;48.794;9.182;2023-04-24T04:56:32;1.40;;;1.30;;
4313;SDS011;2170;48.794;9.182;2023-04-24T04:59:03;1.50;;;1.50;;
4313;SDS011;2170;48.794;9.182;2023-04-24T05:01:33;1.73;;;1.57;;
4313;SDS011;2170;48.794;9.182;2023-04-24T05:04:03;1.70;;;1.60;;
4313;SDS011;2170;48.794;9.182;2023-04-24T05:06:33;1.93;;;1.73;;
4313;SDS011;2170;48.794;9.182;2023-04-24T05:09:08;2.00;;;1.40;;
4313;SDS011;2170;48.794;9.182;2023-04-24T05:11:35;2.43;;;2.23;;
4313;SDS011;2170;48.794;9.182;2023-04-24T05:14:08;1.33;;;1.33;;
4313;SDS011;2170;48.794;9.182;2023-04-24T05:16:45;1.77;;;1.40;;
4313;SDS011;2170;48.794;9.182;2023-04-24T05:19:13;1.60;;;1.50;;
4313;SDS011;2170;48.794;9.182;2023-04-24T05:21:41;1.53;;;1.40;;
4313;SDS011;2170;48.794;9.182;2023-04-24T05:24:09;1.90;;;1.70;;
4313;SDS011;2170;48.794;9.182;2023-04-24T05:26:39;2.50;;;1.73;;
4313;SDS011;2170;48.794;9.182;2023-04-24T05:29:14;1.80;;;1.70;;
4313;SDS011;2170;48.794;9.182;2023-04-24T05:31:47;1.70;;;1.60;;
4313;SDS011;2170;48.794;9.182;2023-04-24T05:34:17;1.90;;;1.80;;
4313;SDS011;2170;48.794;9.182;2023-04-24T05:36:48;2.00;;;1.90;;
4313;SDS011;2170;48.794;9.182;2023-04-24T05:39:22;1.93;;;1.87;;
4313;SDS011;2170;48.794;9.182;2023-04-24T05:41:50;2.20;;;2.00;;
4313;SDS011;2170;48.794;9.182;2023-04-24T05:44:19;2.20;;;2.10;;
4313;SDS011;2170;48.794;9.182;2023-04-24T05:46:58;2.40;;;2.20;;
4313;SDS011;2170;48.794;9.182;2023-04-24T05:49:27;2.60;;;2.40;;
4313;SDS011;2170;48.794;9.182;2023-04-24T05:51:57;2.60;;;1.80;;
4313;SDS011;2170;48.794;9.182;2023-04-24T05:54:31;2.30;;;2.20;;
4313;SDS011;2170;48.794;9.182;2023-04-24T05:56:59;2.20;;;2.10;;
4313;SDS011;2170;48.794;9.182;2023-04-24T05:59:35;2.03;;;1.93;;
4313;SDS011;2170;48.794;9.182;2023-04-24T06:02:06;3.20;;;2.20;;
4313;SDS011;2170;48.794;9.182;2023-04-24T06:04:34;2.20;;;2.10;;
4313;SDS011;2170;48.794;9.182;2023-04-24T06:07:03;2.37;;;2.27;;
4313;SDS011;2170;48.794;9.182;2023-04-24T06:09:33;2.60;;;2.40;;
4313;SDS011;2170;48.794;9.182;2023-04-24T06:12:05;3.27;;;2.20;;
4313;SDS011;2170;48.794;9.182;2023-04-24T06:14:38;2.07;;;1.97;;
4313;SDS011;2170;48.794;9.182;2023-04-24T06:17:15;3.70;;;2.47;;
4313;SDS011;2170;48.794;9.182;2023-04-24T06:19:44;2.37;;;2.23;;
4313;SDS011;2170;48.794;9.182;2023-04-24T06:22:12;2.43;;;2.33;;
4313;SDS011;2170;48.794;9.182;2023-04-24T06:24:40;2.80;;;2.60;;
4313;SDS011;2170;48.794;9.182;2023-04-24T06:27:08;3.20;;;2.90;;
4313;SDS011;2170;48.794;9.182;2023-04-24T06:29:53;3.20;;;3.00;;
4313;SDS011;2170;48.794;9.182;2023-04-24T06:32:22;2.43;;;2.33;;
4313;SDS011;2170;48.794;9.182;2023-04-24T06:34:52;2.83;;;2.63;;
4313;SDS011;2170;48.794;9.182;2023-04-24T06:37:19;2.17;;;2.07;;
4313;SDS011;2170;48.794;9.182;2023-04-24T06:39:47;2.70;;;2.50;;
4313;SDS011;2170;48.794;9.182;2023-04-24T06:42:18;2.70;;;2.50;;
4313;SDS011;2170;48.794;9.182;2023-04-24T06:44:47;2.60;;;2.40;;
4313;SDS011;2170;48.794;9.182;2023-04-24T06:47:17;2.50;;;2.20;;
4313;SDS011;2170;48.794;9.182;2023-04-24T06:49:45;2.67;;;2.50;;
4313;SDS011;2170;48.794;9.182;2023-04-24T06:52:16;2.27;;;2.17;;
4313;SDS011;2170;48.794;9.182;2023-04-24T06:54:44;2.50;;;2.37;;
4313;SDS011;2170;48.794;9.182;2023-04-24T06:57:11;2.70;;;2.30;;
4313;SDS011;2170;48.794;9.182;2023-04-24T06:59:41;4.67;;;2.30;;
4313;SDS011;2170;48.794;9.182;2023-04-24T07:02:12;3.03;;;2.27;;
4313;SDS011;2170;48.794;9.182;2023-04-24T07:04:42;3.00;;;2.70;;
4313;SDS011;2170;48.794;9.182;2023-04-24T07:07:13;2.60;;;2.40;;
4313;SDS011;2170;48.794;9.182;2023-04-24T07:09:41;2.27;;;2.17;;
4313;SDS011;2170;48.794;9.182;2023-04-24T07:12:19;2.73;;;2.63;;
4313;SDS011;2170;48.794;9.182;2023-04-24T07:14:47;2.60;;;2.50;;
4313;SDS011;2170;48.794;9.182;2023-04-24T07:17:19;2.37;;;2.17;;
4313;SDS011;2170;48.794;9.182;2023-04-24T07:19:52;2.30;;;2.00;;
4313;SDS011;2170;48.794;9.182;2023-04-24T07:22:20;3.13;;;2.37;;
4313;SDS011;2170;48.794;9.182;2023-04-24T07:24:57;2.73;;;2.50;;
4313;SDS011;2170;48.794;9.182;2023-04-24T07:27:25;3.23;;;2.23;;
4313;SDS011;2170;48.794;9.182;2023-04-24T07:29:54;2.40;;;2.30;;
4313;SDS011;2170;48.794;9.182;2023-04-24T07:32:27;2.40;;;2.20;;
4313;SDS011;2170;48.794;9.182;2023-04-24T07:34:56;2.23;;;2.13;;
4313;SDS011;2170;48.794;9.182;2023-04-24T07:37:27;2.73;;;2.23;;
4313;SDS011;2170;48.794;9.182;2023-04-24T07:39:55;3.33;;;1.87;;
4313;SDS011;2170;48.794;9.182;2023-04-24T07:42:23;1.70;;;1.50;;
4313;SDS011;2170;48.794;9.182;2023-04-24T07:44:56;1.90;;;1.80;;
4313;SDS011;2170;48.794;9.182;2023-04-24T07:47:29;2.90;;;2.00;;
4313;SDS011;2170;48.794;9.182;2023-04-24T07:49:58;1.70;;;1.60;;
4313;SDS011;2170;48.794;9.182;2023-04-24T07:52:27;1.87;;;1.77;;
4313;SDS011;2170;48.794;9.182;2023-04-24T07:54:55;6.53;;;1.97;;
4313;SDS011;2170;48.794;9.182;2023-04-24T07:57:25;2.13;;;1.90;;
4313;SDS011;2170;48.794;9.182;2023-04-24T07:59:53;2.10;;;2.00;;
4313;SDS011;2170;48.794;9.182;2023-04-24T08:02:21;1.90;;;1.80;;
4313;SDS011;2170;48.794;9.182;2023-04-24T08:04:51;1.90;;;1.80;;
4313;SDS011;2170;48.794;9.182;2023-04-24T08:07:21;1.97;;;1.87;;
4313;SDS011;2170;48.794;9.182;2023-04-24T08:09:49;1.77;;;1.67;;
4313;SDS011;2170;48.794;9.182;2023-04-24T08:12:16;2.60;;;2.40;;
4313;SDS011;2170;48.794;9.182;2023-04-24T08:14:44;2.40;;;1.73;;
4313;SDS011;2170;48.794;9.182;2023-04-24T08:17:12;1.97;;;1.87;;
4313;SDS011;2170;48.794;9.182;2023-04-24T08:19:39;2.90;;;1.70;;
4313;SDS011;2170;48.794;9.182;2023-04-24T08:22:12;2.93;;;2.13;;
4313;SDS011;2170;48.794;9.182;2023-04-24T08:24:43;1.80;;;1.70;;
4313;SDS011;2170;48.794;9.182;2023-04-24T08:27:13;3.33;;;2.43;;
4313;SDS011;2170;48.794;9.182;2023-04-24T08:29:44;2.07;;;1.90;;
4313;SDS011;2170;48.794;9.182;2023-04-24T08:32:12;1.80;;;1.70;;
4313;SDS011;2170;48.794;9.182;2023-04-24T08:34:48;3.07;;;2.00;;
4313;SDS011;2170;48.794;9.182;2023-04-24T08:37:21;3.90;;;1.70;;
4313;SDS011;2170;48.794;9.182;2023-04-24T08:39:54;1.70;;;1.60;;
4313;SDS011;2170;48.794;9.182;2023-04-24T08:42:22;2.10;;;2.00;;
4313;SDS011;2170;48.794;9.182;2023-04-24T08:44:49;4.40;;;1.80;;
4313;SDS011;2170;48.794;9.182;2023-04-24T08:47:17;2.40;;;2.20;;
4313;SDS011;2170;48.794;9.182;2023-04-24T08:49:44;3.33;;;2.20;;
4313;SDS011;2170;48.794;9.182;2023-04-24T08:52:12;1.97;;;1.77;;
4313;SDS011;2170;48.794;9.182;2023-04-24T08:54:39;2.23;;;2.13;;
4313;SDS011;2170;48.794;9.182;2023-04-24T08:57:10;1.70;;;1.60;;
4313;SDS011;2170;48.794;9.182;2023-04-24T08:59:38;1.83;;;1.73;;
4313;SDS011;2170;48.794;9.182;2023-04-24T09:02:10;2.70;;;1.87;;
4313;SDS011;2170;48.794;9.182;2023-04-24T09:04:37;1.90;;;1.80;;
4313;SDS011;2170;48.794;9.182;2023-04-24T09:07:06;2.97;;;1.87;;
4313;SDS011;2170;48.794;9.182;2023-04-24T09:09:34;2.73;;;2.53;;
4313;SDS011;2170;48.794;9.182;2023-04-24T09:12:02;2.50;;;2.30;;
4313;SDS011;2170;48.794;9.182;2023-04-24T09:14:31;1.90;;;1.80;;
4313;SDS011;2170;48.794;9.182;2023-04-24T09:16:58;1.90;;;1.80;;
4313;SDS011;2170;48.794;9.182;2023-04-24T09:19:26;2.00;;;1.90;;
4313;SDS011;2170;48.794;9.182;2023-04-24T09:21:54;1.93;;;1.83;;
4313;SDS011;2170;48.794;9.182;2023-04-24T09:24:24;1.97;;;1.87;;
4313;SDS011;2170;48.794;9.182;2023-04-24T09:26:56;2.30;;;2.10;;
4313;SDS011;2170;48.794;9.182;2023-04-24T09:29:24;2.10;;;2.00;;
4313;SDS011;2170;48.794;9.182;2023-04-24T09:31:53;2.10;;;1.93;;
4313;SDS011;2170;48.794;9.182;2023-04-24T09:34:22;1.90;;;1.80;;
4313;SDS011;2170;48.794;9.182;2023-04-24T09:36:51;3.13;;;1.87;;
4313;SDS011;2170;48.794;9.182;2023-04-24T09:39:19;2.53;;;2.40;;
4313;SDS011;2170;48.794;9.182;2023-04-24T09:41:48;2.00;;;1.90;;
4313;SDS011;2170;48.794;9.182;2023-04-24T09:44:16;1.83;;;1.73;;
4313;SDS011;2170;48.794;9.182;2023-04-24T09:46:45;2.30;;;2.10;;
4313;SDS011;2170;48.794;9.182;2023-04-24T09:49:22;2.63;;;2.43;;
4313;SDS011;2170;48.794;9.182;2023-04-24T09:51:50;2.20;;;2.10;;
4313;SDS011;2170;48.794;9.182;2023-04-24T09:54:29;2.63;;;2.43;;
4313;SDS011;2170;48.794;9.182;2023-04-24T09:56:56;2.70;;;2.47;;
4313;SDS011;2170;48.794;9.182;2023-04-24T09:59:28;1.90;;;1.80;;
4313;SDS011;2170;48.794;9.182;2023-04-24T10:01:56;1.97;;;1.87;;
4313;SDS011;2170;48.794;9.182;2023-04-24T10:04:26;1.97;;;1.87;;
4313;SDS011;2170;48.794;9.182;2023-04-24T10:06:58;1.80;;;1.70;;
4313;SDS011;2170;48.794;9.182;2023-04-24T10:09:26;1.80;;;1.60;;
4313;SDS011;2170;48.794;9.182;2023-04-24T10:11:54;1.40;;;1.40;;
4313;SDS011;2170;48.794;9.182;2023-04-24T10:14:26;1.77;;;1.67;;
4313;SDS011;2170;48.794;9.182;2023-04-24T10:16:57;1.40;;;1.30;;
4313;SDS011;2170;48.794;9.182;2023-04-24T10:19:33;2.40;;;1.77;;
4313;SDS011;2170;48.794;9.182;2023-04-24T10:22:01;1.63;;;1.53;;
4313;SDS011;2170;48.794;9.182;2023-04-24T10:24:33;2.00;;;1.90;;
4313;SDS011;2170;48.794;9.182;2023-04-24T10:27:02;1.60;;;1.50;;
4313;SDS011;2170;48.794;9.182;2023-04-24T10:29:34;1.80;;;1.70;;
4313;SDS011;2170;48.794;9.182;2023-04-24T10:32:03;2.00;;;1.90;;
4313;SDS011;2170;48.794;9.182;2023-04-24T10:34:32;4.73;;;1.63;;
4313;SDS011;2170;48.794;9.182;2023-04-24T10:37:02;1.57;;;1.47;;
4313;SDS011;2170;48.794;9.182;2023-04-24T10:39:30;1.50;;;1.50;;
4313;SDS011;2170;48.794;9.182;2023-04-24T10:41:58;2.20;;;2.00;;
4313;SDS011;2170;48.794;9.182;2023-04-24T10:44:27;2.07;;;1.90;;
4313;SDS011;2170;48.794;9.182;2023-04-24T10:47:04;2.17;;;1.80;;
4313;SDS011;2170;48.794;9.182;2023-04-24T10:49:37;1.70;;;1.60;;
4313;SDS011;2170;48.794;9.182;2023-04-24T10:52:10;1.80;;;1.70;;
4313;SDS011;2170;48.794;9.182;2023-04-24T10:54:42;1.53;;;1.50;;
4313;SDS011;2170;48.794;9.182;2023-04-24T10:57:27;2.47;;;2.27;;
4313;SDS011;2170;48.794;9.182;2023-04-24T11:00:15;1.23;;;1.23;;
4313;SDS011;2170;48.794;9.182;2023-04-24T11:02:45;2.77;;;1.63;;
4313;SDS011;2170;48.794;9.182;2023-04-24T11:05:17;6.17;;;1.70;;
4313;SDS011;2170;48.794;9.182;2023-04-24T11:10:32;1.90;;;1.80;;
4313;SDS011;2170;48.794;9.182;2023-04-24T11:13:03;2.90;;;1.73;;
4313;SDS011;2170;48.794;9.182;2023-04-24T11:15:31;2.33;;;1.83;;
4313;SDS011;2170;48.794;9.182;2023-04-24T11:17:59;2.00;;;1.90;;
4313;SDS011;2170;48.794;9.182;2023-04-24T11:20:33;1.70;;;1.60;;
4313;SDS011;2170;48.794;9.182;2023-04-24T11:23:03;1.73;;;1.67;;
4313;SDS011;2170;48.794;9.182;2023-04-24T11:25:32;1.70;;;1.60;;
4313;SDS011;2170;48.794;9.182;2023-04-24T11:28:03;1.87;;;1.77;;
4313;SDS011;2170;48.794;9.182;2023-04-24T11:30:31;2.73;;;1.67;;
4313;SDS011;2170;48.794;9.182;2023-04-24T11:33:01;1.50;;;1.47;;
4313;SDS011;2170;48.794;9.182;2023-04-24T11:35:29;1.63;;;1.53;;
4313;SDS011;2170;48.794;9.182;2023-04-24T11:38:01;2.33;;;2.10;;
4313;SDS011;2170;48.794;9.182;2023-04-24T11:40:28;1.53;;;1.50;;
4313;SDS011;2170;48.794;9.182;2023-04-24T11:42:55;2.63;;;2.40;;
4313;SDS011;2170;48.794;9.182;2023-04-24T11:45:31;2.30;;;2.20;;
4313;SDS011;2170;48.794;9.182;2023-04-24T11:47:59;2.00;;;1.90;;
4313;SDS011;2170;48.794;9.182;2023-04-24T11:50:28;1.70;;;1.60;;
4313;SDS011;2170;48.794;9.182;2023-04-24T11:52:57;3.23;;;1.67;;
4313;SDS011;2170;48.794;9.182;2023-04-24T11:55:29;1.87;;;1.77;;
4313;SDS011;2170;48.794;9.182;2023-04-24T11:57:58;2.53;;;2.00;;
4313;SDS011;2170;48.794;9.182;2023-04-24T12:00:26;2.10;;;2.00;;
4313;SDS011;2170;48.794;9.182;2023-04-24T12:03:03;1.70;;;1.70;;
4313;SDS011;2170;48.794;9.182;2023-04-24T12:05:32;1.93;;;1.83;;
4313;SDS011;2170;48.794;9.182;2023-04-24T12:07:59;2.00;;;1.90;;
4313;SDS011;2170;48.794;9.182;2023-04-24T12:10:29;1.83;;;1.83;;
4313;SDS011;2170;48.794;9.182;2023-04-24T12:12:57;1.70;;;1.70;;
4313;SDS011;2170;48.794;9.182;2023-04-24T12:15:25;1.97;;;1.73;;
4313;SDS011;2170;48.794;9.182;2023-04-24T12:17:54;1.90;;;1.80;;
4313;SDS011;2170;48.794;9.182;2023-04-24T12:20:26;1.50;;;1.37;;
4313;SDS011;2170;48.794;9.182;2023-04-24T12:22:55;1.83;;;1.73;;
4313;SDS011;2170;48.794;9.182;2023-04-24T12:25:23;4.67;;;1.70;;
4313;SDS011;2170;48.794;9.182;2023-04-24T12:28:08;2.03;;;1.80;;
4313;SDS011;2170;48.794;9.182;2023-04-24T12:30:40;2.17;;;1.63;;
4313;SDS011;2170;48.794;9.182;2023-04-24T12:33:09;2.30;;;2.20;;
4313;SDS011;2170;48.794;9.182;2023-04-24T12:35:39;1.57;;;1.47;;
4313;SDS011;2170;48.794;9.182;2023-04-24T12:38:12;2.00;;;1.90;;
4313;SDS011;2170;48.794;9.182;2023-04-24T12:40:40;2.03;;;1.93;;
4313;SDS011;2170;48.794;9.182;2023-04-24T12:43:17;1.50;;;1.50;;
4313;SDS011;2170;48.794;9.182;2023-04-24T12:45:48;1.93;;;1.83;;
4313;SDS011;2170;48.794;9.182;2023-04-24T12:48:17;2.10;;;2.00;;
4313;SDS011;2170;48.794;9.182;2023-04-24T12:50:45;2.00;;;1.90;;
4313;SDS011;2170;48.794;9.182;2023-04-24T12:53:14;4.40;;;2.03;;
4313;SDS011;2170;48.794;9.182;2023-04-24T12:55:42;1.70;;;1.70;;
4313;SDS011;2170;48.794;9.182;2023-04-24T12:58:10;2.10;;;2.00;;
4313;SDS011;2170;48.794;9.182;2023-04-24T13:00:39;2.30;;;2.20;;
4313;SDS011;2170;48.794;9.182;2023-04-24T13:03:13;1.97;;;1.87;;
4313;SDS011;2170;48.794;9.182;2023-04-24T13:05:41;2.40;;;2.30;;
4313;SDS011;2170;48.794;9.182;2023-04-24T13:08:09;2.40;;;2.20;;
4313;SDS011;2170;48.794;9.182;2023-04-24T13:10:40;1.90;;;1.80;;
4313;SDS011;2170;48.794;9.182;2023-04-24T13:13:08;2.10;;;2.00;;
4313;SDS011;2170;48.794;9.182;2023-04-24T13:15:40;1.80;;;1.70;;
4313;SDS011;2170;48.794;9.182;2023-04-24T13:18:10;2.13;;;2.03;;
4313;SDS011;2170;48.794;9.182;2023-04-24T13:20:41;2.33;;;2.23;;
4313;SDS011;2170;48.794;9.182;2023-04-24T13:23:09;2.43;;;2.33;;
4313;SDS011;2170;48.794;9.182;2023-04-24T13:25:47;2.47;;;2.37;;
4313;SDS011;2170;48.794;9.182;2023-04-24T13:28:22;2.23;;;2.13;;
4313;SDS011;2170;48.794;9.182;2023-04-24T13:30:58;2.40;;;2.30;;
4313;SDS011;2170;48.794;9.182;2023-04-24T13:33:26;2.30;;;2.10;;
4313;SDS011;2170;48.794;9.182;2023-04-24T13:35:56;2.30;;;2.10;;
4313;SDS011;2170;48.794;9.182;2023-04-24T13:38:27;2.23;;;2.13;;
4313;SDS011;2170;48.794;9.182;2023-04-24T13:40:59;2.33;;;2.23;;
4313;SDS011;2170;48.794;9.182;2023-04-24T13:43:29;2.13;;;2.03;;
4313;SDS011;2170;48.794;9.182;2023-04-24T13:45:59;2.60;;;2.50;;
4313;SDS011;2170;48.794;9.182;2023-04-24T13:48:28;2.90;;;2.70;;
4313;SDS011;2170;48.794;9.182;2023-04-24T13:50:56;2.37;;;2.17;;
4313;SDS011;2170;48.794;9.182;2023-04-24T13:53:23;2.30;;;2.20;;
4313;SDS011;2170;48.794;9.182;2023-04-24T13:55:51;2.47;;;2.27;;
4313;SDS011;2170;48.794;9.182;2023-04-24T13:58:18;2.23;;;2.00;;
4313;SDS011;2170;48.794;9.182;2023-04-24T14:00:49;2.30;;;2.20;;
4313;SDS011;2170;48.794;9.182;2023-04-24T14:03:17;2.73;;;2.53;;
4313;SDS011;2170;48.794;9.182;2023-04-24T14:05:45;2.60;;;2.40;;
4313;SDS011;2170;48.794;9.182;2023-04-24T14:08:12;2.00;;;1.90;;
4313;SDS011;2170;48.794;9.182;2023-04-24T14:10:41;1.90;;;1.80;;
4313;SDS011;2170;48.794;9.182;2023-04-24T14:13:09;2.10;;;1.90;;
4313;SDS011;2170;48.794;9.182;2023-04-24T14:15:37;2.07;;;1.97;;
4313;SDS011;2170;48.794;9.182;2023-04-24T14:18:05;2.50;;;2.40;;
4313;SDS011;2170;48.794;9.182;2023-04-24T14:20:33;2.90;;;2.80;;
4313;SDS011;2170;48.794;9.182;2023-04-24T14:23:02;2.37;;;2.27;;
4313;SDS011;2170;48.794;9.182;2023-04-24T14:25:30;4.30;;;2.30;;
4313;SDS011;2170;48.794;9.182;2023-04-24T14:27:58;2.40;;;2.20;;
4313;SDS011;2170;48.794;9.182;2023-04-24T14:30:26;2.23;;;2.13;;
4313;SDS011;2170;48.794;9.182;2023-04-24T14:32:56;2.60;;;2.50;;
4313;SDS011;2170;48.794;9.182;2023-04-24T14:35:24;1.70;;;1.60;;
4313;SDS011;2170;48.794;9.182;2023-04-24T14:37:55;2.10;;;2.00;;
4313;SDS011;2170;48.794;9.182;2023-04-24T14:40:28;1.50;;;1.47;;
4313;SDS011;2170;48.794;9.182;2023-04-24T14:43:01;2.00;;;1.90;;
4313;SDS011;2170;48.794;9.182;2023-04-24T14:45:28;2.17;;;2.07;;
4313;SDS011;2170;48.794;9.182;2023-04-24T14:47:58;2.03;;;1.93;;
4313;SDS011;2170;48.794;9.182;2023-04-24T14:50:26;2.03;;;1.93;;
4313;SDS011;2170;48.794;9.182;2023-04-24T14:52:55;1.63;;;1.53;;
4313;SDS011;2170;48.794;9.182;2023-04-24T14:55:27;2.20;;;2.10;;
4313;SDS011;2170;48.794;9.182;2023-04-24T14:57:58;2.03;;;1.93;;
4313;SDS011;2170;48.794;9.182;2023-04-24T15:00:30;1.73;;;1.63;;
4313;SDS011;2170;48.794;9.182;2023-04-24T15:03:01;2.20;;;2.00;;
4313;SDS011;2170;48.794;9.182;2023-04-24T15:05:31;2.47;;;2.27;;
4313;SDS011;2170;48.794;9.182;2023-04-24T15:08:04;2.07;;;1.97;;
4313;SDS011;2170;48.794;9.182;2023-04-24T15:10:32;2.40;;;2.20;;
4313;SDS011;2170;48.794;9.182;2023-04-24T15:13:00;2.60;;;2.40;;
4313;SDS011;2170;48.794;9.182;2023-04-24T15:15:28;2.50;;;2.30;;
4313;SDS011;2170;48.794;9.182;2023-04-24T15:17:55;3.07;;;2.07;;
4313;SDS011;2170;48.794;9.182;2023-04-24T15:20:24;2.33;;;2.23;;
4313;SDS011;2170;48.794;9.182;2023-04-24T15:22:51;2.50;;;2.30;;
4313;SDS011;2170;48.794;9.182;2023-04-24T15:25:21;3.50;;;2.37;;
4313;SDS011;2170;48.794;9.182;2023-04-24T15:27:49;2.53;;;2.33;;
4313;SDS011;2170;48.794;9.182;2023-04-24T15:30:16;2.60;;;2.40;;
4313;SDS011;2170;48.794;9.182;2023-04-24T15:32:49;2.33;;;2.20;;
4313;SDS011;2170;48.794;9.182;2023-04-24T15:35:17;2.33;;;2.07;;
4313;SDS011;2170;48.794;9.182;2023-04-24T15:37:47;2.30;;;2.20;;
4313;SDS011;2170;48.794;9.182;2023-04-24T15:40:15;2.60;;;2.40;;
4313;SDS011;2170;48.794;9.182;2023-04-24T15:42:45;3.23;;;2.37;;
4313;SDS011;2170;48.794;9.182;2023-04-24T15:45:13;2.63;;;2.47;;